createdAt,value
2018-01-29T00:00:18.190Z,84.71
2018-01-29T00:02:46.495Z,84.42
2018-01-29T00:05:14.774Z,84.59
2018-01-29T00:07:43.065Z,84.49
2018-01-29T00:10:11.327Z,84.51
2018-01-29T00:12:39.977Z,84.39
2018-01-29T00:15:08.429Z,84.25
2018-01-29T00:17:41.662Z,84.33
2018-01-29T00:20:12.248Z,84.34
2018-01-29T00:22:40.488Z,84.22
2018-01-29T00:25:08.882Z,84.13
2018-01-29T00:27:37.195Z,84.40
2018-01-29T00:30:05.491Z,84.55
2018-01-29T00:32:33.758Z,84.62
2018-01-29T00:35:02.067Z,84.35
2018-01-29T00:37:30.340Z,83.98
2018-01-29T00:39:58.632Z,84.08
2018-01-29T00:42:26.948Z,84.40
2018-01-29T00:44:55.247Z,84.30
2018-01-29T00:47:23.519Z,84.18
2018-01-29T00:49:51.822Z,83.88
2018-01-29T00:52:20.113Z,83.58
2018-01-29T00:54:48.466Z,83.72
2018-01-29T00:57:16.753Z,83.83
2018-01-29T00:59:45.088Z,83.77
2018-01-29T01:02:13.360Z,84.14
2018-01-29T01:04:41.990Z,84.32
2018-01-29T01:07:10.279Z,84.30
2018-01-29T01:09:38.554Z,84.52
2018-01-29T01:12:06.861Z,84.65
2018-01-29T01:14:35.143Z,84.73
2018-01-29T01:17:03.452Z,85.09
2018-01-29T01:19:31.723Z,84.47
2018-01-29T01:22:00.017Z,84.05
2018-01-29T01:24:28.374Z,83.82
2018-01-29T01:26:56.590Z,83.83
2018-01-29T01:29:24.894Z,84.06
2018-01-29T01:31:53.161Z,83.96
2018-01-29T01:34:21.508Z,84.02
2018-01-29T01:36:49.727Z,84.00
2018-01-29T01:39:18.034Z,83.95
2018-01-29T01:41:46.310Z,83.96
2018-01-29T01:44:14.636Z,83.92
2018-01-29T01:46:43.570Z,83.74
2018-01-29T01:49:11.840Z,83.50
2018-01-29T01:51:40.114Z,83.67
2018-01-29T01:54:08.412Z,83.92
2018-01-29T01:56:36.758Z,84.25
2018-01-29T01:59:05.181Z,84.06
2018-01-29T02:01:33.612Z,84.17
2018-01-29T02:04:01.859Z,84.32
2018-01-29T02:06:30.151Z,84.29
2018-01-29T02:08:58.483Z,84.42
2018-01-29T02:11:26.733Z,84.31
2018-01-29T02:13:55.007Z,84.33
2018-01-29T02:16:23.311Z,84.51
2018-01-29T02:18:51.617Z,84.53
2018-01-29T02:21:19.895Z,84.79
2018-01-29T02:23:48.183Z,84.89
2018-01-29T02:26:16.467Z,84.96
2018-01-29T02:28:45.022Z,84.99
2018-01-29T02:31:13.285Z,84.83
2018-01-29T02:33:41.583Z,84.70
2018-01-29T02:36:09.914Z,84.68
2018-01-29T02:38:38.243Z,84.46
2018-01-29T02:41:06.826Z,84.48
2018-01-29T02:43:35.147Z,84.48
2018-01-29T02:46:03.419Z,84.28
2018-01-29T02:48:31.736Z,84.24
2018-01-29T02:50:59.988Z,84.33
2018-01-29T02:53:28.310Z,84.46
2018-01-29T02:55:56.602Z,84.59
2018-01-29T02:58:24.885Z,84.81
2018-01-29T03:00:53.147Z,84.71
2018-01-29T03:03:22.070Z,84.59
2018-01-29T03:05:50.371Z,84.55
2018-01-29T03:08:18.666Z,84.65
2018-01-29T03:10:47.043Z,84.91
2018-01-29T03:13:15.323Z,84.64
2018-01-29T03:15:43.666Z,84.67
2018-01-29T03:18:11.929Z,84.64
2018-01-29T03:20:40.219Z,84.32
2018-01-29T03:23:08.521Z,84.49
2018-01-29T03:25:36.831Z,84.50
2018-01-29T03:28:05.151Z,84.66
2018-01-29T03:30:33.508Z,84.87
2018-01-29T03:33:01.779Z,84.90
2018-01-29T03:35:30.064Z,84.72
2018-01-29T03:37:58.344Z,84.71
2018-01-29T03:40:26.631Z,84.68
2018-01-29T03:42:54.892Z,84.49
2018-01-29T03:45:23.422Z,84.60
2018-01-29T03:47:51.666Z,84.47
2018-01-29T03:50:19.995Z,84.26
2018-01-29T03:52:48.311Z,84.33
2018-01-29T03:55:16.551Z,84.32
2018-01-29T03:57:44.831Z,84.29
2018-01-29T04:00:13.104Z,84.40
2018-01-29T04:02:41.682Z,84.04
2018-01-29T04:05:09.953Z,84.19
2018-01-29T04:07:38.259Z,84.16
2018-01-29T04:10:07.498Z,84.14
2018-01-29T04:12:35.803Z,83.81
2018-01-29T04:15:04.890Z,83.72
2018-01-29T04:17:33.171Z,83.62
2018-01-29T04:20:01.451Z,83.86
2018-01-29T04:22:29.752Z,84.01
2018-01-29T04:24:58.598Z,84.17
2018-01-29T04:27:26.895Z,84.31
2018-01-29T04:29:55.200Z,84.64
2018-01-29T04:32:23.463Z,84.69
2018-01-29T04:34:51.870Z,84.74
2018-01-29T04:37:20.086Z,84.71
2018-01-29T04:39:48.408Z,84.93
2018-01-29T04:42:16.637Z,85.11
2018-01-29T04:44:44.940Z,85.26
2018-01-29T04:47:13.207Z,84.97
2018-01-29T04:49:41.495Z,85.01
2018-01-29T04:52:09.757Z,85.12
2018-01-29T04:54:38.042Z,85.32
2018-01-29T04:57:06.313Z,85.21
2018-01-29T04:59:34.602Z,84.80
2018-01-29T05:02:02.899Z,84.93
2018-01-29T05:04:31.165Z,84.87
2018-01-29T05:06:59.468Z,84.81
2018-01-29T05:09:27.731Z,84.72
2018-01-29T05:11:56.040Z,84.44
2018-01-29T05:14:24.311Z,84.24
2018-01-29T05:16:52.611Z,84.36
2018-01-29T05:19:20.868Z,84.52
2018-01-29T05:21:49.188Z,84.33
2018-01-29T05:24:17.444Z,84.43
2018-01-29T05:26:45.749Z,84.35
2018-01-29T05:29:14.006Z,84.27
2018-01-29T05:31:42.307Z,84.45
2018-01-29T05:34:10.552Z,84.78
2018-01-29T05:36:44.455Z,84.97
2018-01-29T05:39:12.738Z,84.72
2018-01-29T05:41:41.030Z,84.66
2018-01-29T05:44:09.327Z,84.42
2018-01-29T05:46:37.598Z,84.60
2018-01-29T05:49:05.879Z,84.39
2018-01-29T05:51:35.026Z,84.44
2018-01-29T05:54:03.320Z,84.27
2018-01-29T05:56:31.580Z,84.41
2018-01-29T05:58:59.874Z,84.41
2018-01-29T06:01:28.136Z,84.47
2018-01-29T06:03:56.439Z,84.48
2018-01-29T06:06:24.706Z,84.52
2018-01-29T06:08:53.030Z,84.59
2018-01-29T06:11:21.267Z,84.58
2018-01-29T06:13:49.621Z,84.79
2018-01-29T06:16:17.896Z,84.36
2018-01-29T06:18:46.189Z,84.33
2018-01-29T06:21:14.580Z,84.37
2018-01-29T06:23:42.893Z,84.32
2018-01-29T06:26:11.179Z,84.54
2018-01-29T06:28:39.439Z,84.28
2018-01-29T06:31:07.743Z,84.23
2018-01-29T06:33:36.063Z,84.44
2018-01-29T06:36:05.320Z,84.65
2018-01-29T06:38:34.342Z,84.75
2018-01-29T06:41:02.650Z,84.55
2018-01-29T06:43:30.919Z,84.16
2018-01-29T06:45:59.260Z,84.30
2018-01-29T06:48:27.496Z,78.43
2018-01-29T06:50:55.805Z,76.86
2018-01-29T06:53:24.296Z,77.14
2018-01-29T06:55:52.738Z,76.65
2018-01-29T06:58:21.016Z,76.72
2018-01-29T07:00:49.283Z,78.30
2018-01-29T07:03:17.608Z,79.84
2018-01-29T07:05:45.888Z,80.99
2018-01-29T07:08:14.764Z,81.86
2018-01-29T07:10:43.056Z,82.11
2018-01-29T07:13:11.431Z,82.26
2018-01-29T07:15:39.916Z,82.67
2018-01-29T07:18:08.274Z,82.89
2018-01-29T07:20:36.548Z,82.93
2018-01-29T07:23:05.350Z,82.89
2018-01-29T07:25:33.658Z,82.77
2018-01-29T07:28:02.548Z,83.05
2018-01-29T07:30:30.954Z,83.12
2018-01-29T07:32:59.325Z,83.13
2018-01-29T07:35:27.589Z,83.23
2018-01-29T07:37:55.837Z,83.09
2018-01-29T07:40:30.150Z,82.93
2018-01-29T07:42:59.117Z,83.05
2018-01-29T07:45:27.422Z,82.94
2018-01-29T07:47:55.700Z,82.60
2018-01-29T07:50:24.022Z,82.17
2018-01-29T07:56:09.266Z,82.05
2018-01-29T07:58:44.261Z,81.90
2018-01-29T08:01:25.693Z,82.10
2018-01-29T08:03:53.961Z,82.52
2018-01-29T08:06:23.987Z,83.09
2018-01-29T08:08:52.265Z,83.34
2018-01-29T08:11:20.546Z,83.68
2018-01-29T08:13:48.940Z,84.17
2018-01-29T08:16:17.220Z,84.29
2018-01-29T08:18:45.655Z,84.48
2018-01-29T08:21:13.925Z,84.25
2018-01-29T08:23:45.161Z,84.02
2018-01-29T08:26:20.124Z,83.92
2018-01-29T08:28:50.391Z,83.99
2018-01-29T08:31:18.665Z,84.03
2018-01-29T08:33:46.987Z,83.99
2018-01-29T08:36:15.242Z,83.88
2018-01-29T08:38:43.625Z,84.03
2018-01-29T08:41:11.937Z,83.83
2018-01-29T08:43:40.383Z,83.52
2018-01-29T08:46:08.668Z,83.08
2018-01-29T08:48:37.001Z,82.75
2018-01-29T08:51:05.484Z,82.49
2018-01-29T08:53:34.496Z,82.13
2018-01-29T08:56:03.113Z,82.27
2018-01-29T08:58:31.384Z,82.20
2018-01-29T09:01:00.672Z,81.74
2018-01-29T09:03:28.956Z,82.04
2018-01-29T09:05:57.300Z,82.22
2018-01-29T09:08:25.643Z,81.63
2018-01-29T09:10:53.994Z,80.83
2018-01-29T09:13:22.650Z,80.69
2018-01-29T09:15:51.031Z,80.54
2018-01-29T09:18:19.378Z,80.56
2018-01-29T09:20:48.065Z,80.96
2018-01-29T09:23:16.357Z,81.16
2018-01-29T09:25:46.714Z,81.34
2018-01-29T09:28:33.476Z,82.24
2018-01-29T09:31:01.848Z,82.46
2018-01-29T09:33:35.930Z,82.59
2018-01-29T09:36:04.715Z,82.96
2018-01-29T09:38:33.027Z,83.07
2018-01-29T09:41:01.336Z,83.17
2018-01-29T09:43:29.609Z,83.31
2018-01-29T09:45:59.001Z,83.27
2018-01-29T09:48:27.471Z,83.45
2018-01-29T09:50:55.944Z,83.60
2018-01-29T09:53:24.250Z,83.45
2018-01-29T09:55:52.544Z,83.60
2018-01-29T09:58:20.818Z,83.86
2018-01-29T10:00:49.121Z,83.30
2018-01-29T10:03:17.860Z,83.69
2018-01-29T10:05:46.256Z,83.45
2018-01-29T10:08:15.697Z,83.27
2018-01-29T10:10:44.180Z,82.84
2018-01-29T10:13:12.529Z,82.75
2018-01-29T10:15:40.927Z,82.58
2018-01-29T10:18:09.249Z,82.69
2018-01-29T10:20:37.557Z,82.17
2018-01-29T10:23:05.893Z,81.52
2018-01-29T10:25:34.182Z,81.68
2018-01-29T10:28:02.510Z,81.94
2018-01-29T10:30:31.122Z,82.06
2018-01-29T10:32:59.674Z,82.04
2018-01-29T10:35:27.937Z,82.06
2018-01-29T10:37:56.239Z,82.10
2018-01-29T10:40:24.625Z,81.91
2018-01-29T10:42:52.931Z,82.17
2018-01-29T10:45:21.239Z,81.95
2018-01-29T10:47:49.498Z,81.95
2018-01-29T10:50:17.791Z,81.86
2018-01-29T10:52:46.075Z,81.98
2018-01-29T10:55:14.416Z,82.01
2018-01-29T10:57:42.706Z,81.80
2018-01-29T11:00:11.062Z,81.63
2018-01-29T11:02:39.381Z,81.32
2018-01-29T11:05:07.674Z,81.42
2018-01-29T11:07:35.936Z,81.08
2018-01-29T11:10:05.135Z,80.88
2018-01-29T11:12:33.410Z,80.68
2018-01-29T11:15:01.703Z,80.51
2018-01-29T11:17:30.004Z,80.59
2018-01-29T11:19:58.408Z,80.35
2018-01-29T11:22:26.684Z,80.72
2018-01-29T11:24:55.030Z,80.67
2018-01-29T11:27:23.276Z,80.57
2018-01-29T11:29:51.626Z,80.59
2018-01-29T11:32:19.935Z,80.48
2018-01-29T11:34:48.298Z,80.59
2018-01-29T11:37:16.613Z,80.38
2018-01-29T11:39:44.991Z,80.17
2018-01-29T11:42:13.348Z,79.30
2018-01-29T11:44:41.706Z,79.07
2018-01-29T11:47:10.613Z,78.67
2018-01-29T11:49:38.885Z,78.76
2018-01-29T11:52:07.204Z,78.96
2018-01-29T11:54:35.507Z,79.06
2018-01-29T11:57:03.803Z,79.79
2018-01-29T11:59:32.166Z,80.09
2018-01-29T12:02:00.463Z,80.29
2018-01-29T12:04:28.733Z,80.64
2018-01-29T12:06:57.065Z,81.12
2018-01-29T12:09:25.349Z,81.69
2018-01-29T12:11:53.650Z,81.88
2018-01-29T12:14:22.052Z,82.21
2018-01-29T12:16:50.424Z,81.93
2018-01-29T12:19:18.828Z,81.72
2018-01-29T12:21:47.103Z,81.64
2018-01-29T12:24:15.500Z,81.83
2018-01-29T12:26:43.900Z,81.90
2018-01-29T12:29:12.272Z,81.99
2018-01-29T12:31:41.813Z,81.91
2018-01-29T12:34:10.107Z,81.90
2018-01-29T12:36:38.443Z,82.27
2018-01-29T12:39:06.784Z,81.99
2018-01-29T12:41:35.053Z,81.45
2018-01-29T12:44:03.360Z,81.57
2018-01-29T12:46:31.745Z,81.72
2018-01-29T12:49:00.081Z,81.48
2018-01-29T12:51:28.406Z,81.40
2018-01-29T12:53:56.714Z,81.56
2018-01-29T12:56:25.307Z,81.41
2018-01-29T12:58:53.677Z,81.31
2018-01-29T13:01:22.036Z,80.58
2018-01-29T13:03:50.356Z,79.66
2018-01-29T13:06:18.712Z,79.33
2018-01-29T13:08:47.123Z,79.03
2018-01-29T13:11:15.436Z,78.94
2018-01-29T13:13:43.712Z,78.49
2018-01-29T13:16:12.027Z,78.32
2018-01-29T13:18:40.324Z,77.78
2018-01-29T13:21:08.655Z,77.30
2018-01-29T13:23:36.969Z,76.75
2018-01-29T13:26:05.900Z,76.79
2018-01-29T13:28:34.188Z,76.65
2018-01-29T13:31:02.488Z,76.67
2018-01-29T13:33:30.795Z,76.65
2018-01-29T13:35:59.102Z,76.78
2018-01-29T13:38:27.419Z,77.15
2018-01-29T13:40:55.827Z,77.38
2018-01-29T13:43:25.102Z,77.19
2018-01-29T13:45:54.174Z,77.34
2018-01-29T13:48:22.549Z,77.24
2018-01-29T13:50:50.850Z,76.92
2018-01-29T13:53:19.140Z,76.76
2018-01-29T13:55:47.432Z,76.55
2018-01-29T13:58:15.878Z,76.62
2018-01-29T14:00:44.197Z,76.71
2018-01-29T14:03:12.659Z,76.46
2018-01-29T14:05:40.992Z,76.31
2018-01-29T14:08:09.242Z,76.17
2018-01-29T14:10:38.286Z,76.14
2018-01-29T14:13:06.561Z,76.13
2018-01-29T14:15:34.874Z,75.97
2018-01-29T14:18:03.160Z,75.88
2018-01-29T14:20:31.487Z,75.96
2018-01-29T14:22:59.844Z,75.05
2018-01-29T14:25:28.183Z,74.71
2018-01-29T14:27:56.540Z,74.36
2018-01-29T14:30:24.996Z,74.58
2018-01-29T14:32:53.285Z,74.35
2018-01-29T14:35:21.784Z,74.45
2018-01-29T14:37:50.081Z,74.38
2018-01-29T14:40:18.628Z,74.60
2018-01-29T14:42:47.040Z,74.51
2018-01-29T14:45:15.292Z,74.45
2018-01-29T14:47:44.388Z,74.41
2018-01-29T14:50:12.968Z,74.63
2018-01-29T14:52:41.272Z,74.51
2018-01-29T14:55:09.546Z,74.59
2018-01-29T14:57:37.899Z,74.64
2018-01-29T15:00:06.305Z,74.42
2018-01-29T15:02:34.649Z,74.46
2018-01-29T15:05:02.984Z,74.51
2018-01-29T15:07:31.359Z,74.64
2018-01-29T15:09:59.689Z,75.00
2018-01-29T15:12:28.032Z,75.12
2018-01-29T15:14:56.412Z,75.32
2018-01-29T15:17:24.683Z,75.58
2018-01-29T15:19:53.155Z,75.63
2018-01-29T15:22:21.440Z,75.76
2018-01-29T15:24:49.715Z,75.95
2018-01-29T15:27:18.092Z,76.03
2018-01-29T15:29:46.455Z,76.15
2018-01-29T15:32:14.811Z,76.23
2018-01-29T15:34:43.066Z,76.61
2018-01-29T15:37:11.417Z,76.62
2018-01-29T15:39:39.771Z,76.96
2018-01-29T15:42:08.214Z,77.15
2018-01-29T15:44:36.529Z,77.41
2018-01-29T15:47:05.274Z,77.27
2018-01-29T15:49:33.665Z,77.35
2018-01-29T15:52:01.917Z,77.94
2018-01-29T15:54:30.218Z,78.24
2018-01-29T15:56:58.575Z,77.97
2018-01-29T15:59:26.851Z,78.37
2018-01-29T16:01:55.961Z,78.16
2018-01-29T16:04:24.289Z,78.20
2018-01-29T16:06:53.115Z,77.64
2018-01-29T16:09:21.408Z,77.67
2018-01-29T16:11:49.694Z,77.74
2018-01-29T16:14:18.016Z,77.55
2018-01-29T16:16:46.316Z,77.81
2018-01-29T16:19:14.589Z,77.77
2018-01-29T16:21:43.009Z,78.40
2018-01-29T16:24:11.275Z,79.08
2018-01-29T16:26:39.567Z,79.71
2018-01-29T16:29:07.913Z,80.36
2018-01-29T16:31:36.178Z,80.60
2018-01-29T16:34:04.483Z,80.61
2018-01-29T16:36:32.758Z,80.57
2018-01-29T16:39:01.106Z,80.69
2018-01-29T16:41:29.403Z,80.52
2018-01-29T16:43:57.688Z,80.46
2018-01-29T16:46:25.979Z,80.76
2018-01-29T16:48:54.318Z,80.69
2018-01-29T16:51:22.590Z,80.68
2018-01-29T16:53:50.900Z,80.18
2018-01-29T16:56:19.169Z,79.76
2018-01-29T16:58:47.521Z,79.77
2018-01-29T17:01:15.874Z,79.56
2018-01-29T17:03:46.096Z,79.45
2018-01-29T17:06:14.416Z,79.30
2018-01-29T17:08:42.789Z,78.91
2018-01-29T17:11:11.117Z,78.60
2018-01-29T17:13:39.423Z,78.56
2018-01-29T17:16:07.722Z,78.48
2018-01-29T17:18:35.996Z,77.89
2018-01-29T17:21:04.571Z,77.61
2018-01-29T17:23:33.634Z,77.28
2018-01-29T17:26:02.033Z,77.11
2018-01-29T17:28:30.328Z,76.87
2018-01-29T17:30:58.691Z,76.65
2018-01-29T17:33:26.994Z,76.84
2018-01-29T17:35:55.284Z,76.62
2018-01-29T17:38:23.630Z,76.19
2018-01-29T17:40:52.041Z,76.34
2018-01-29T17:43:20.402Z,76.57
2018-01-29T17:45:48.733Z,76.77
2018-01-29T17:48:17.047Z,77.19
2018-01-29T17:50:45.324Z,77.34
2018-01-29T17:53:13.668Z,77.29
2018-01-29T17:55:42.053Z,77.79
2018-01-29T17:58:10.422Z,77.40
2018-01-29T18:00:38.695Z,77.37
2018-01-29T18:03:06.972Z,77.40
2018-01-29T18:05:35.287Z,77.23
2018-01-29T18:08:03.616Z,77.12
2018-01-29T18:10:32.068Z,76.59
2018-01-29T18:13:00.350Z,76.46
2018-01-29T18:15:28.657Z,76.42
2018-01-29T18:17:56.934Z,75.78
2018-01-29T18:20:25.233Z,76.13
2018-01-29T18:22:53.525Z,76.10
2018-01-29T18:25:21.834Z,76.26
2018-01-29T18:27:50.134Z,76.22
2018-01-29T18:30:18.460Z,76.38
2018-01-29T18:32:46.728Z,76.77
2018-01-29T18:35:14.990Z,77.10
2018-01-29T18:37:43.364Z,77.43
2018-01-29T18:40:11.655Z,77.26
2018-01-29T18:42:39.947Z,77.07
2018-01-29T18:45:08.226Z,77.09
2018-01-29T18:47:36.544Z,76.52
2018-01-29T18:50:05.159Z,76.32
2018-01-29T18:52:33.433Z,76.01
2018-01-29T18:55:01.727Z,75.82
2018-01-29T18:57:30.067Z,75.81
2018-01-29T18:59:58.374Z,75.46
2018-01-29T19:02:26.698Z,75.43
2018-01-29T19:04:55.056Z,75.62
2018-01-29T19:07:23.332Z,74.97
2018-01-29T19:09:51.655Z,75.44
2018-01-29T19:12:19.918Z,75.48
2018-01-29T19:14:48.257Z,75.51
2018-01-29T19:17:16.533Z,75.03
2018-01-29T19:19:44.874Z,75.18
2018-01-29T19:22:13.355Z,75.18
2018-01-29T19:24:41.653Z,75.02
2018-01-29T19:27:10.041Z,74.95
2018-01-29T19:29:38.377Z,75.06
2018-01-29T19:32:07.886Z,75.02
2018-01-29T19:34:36.305Z,75.28
2018-01-29T19:37:04.656Z,75.20
2018-01-29T19:39:32.980Z,75.37
2018-01-29T19:42:01.257Z,75.04
2018-01-29T19:44:29.569Z,74.82
2018-01-29T19:46:57.923Z,74.93
2018-01-29T19:49:26.224Z,74.64
2018-01-29T19:51:54.596Z,74.67
2018-01-29T19:54:23.695Z,74.95
2018-01-29T19:56:51.990Z,75.03
2018-01-29T19:59:20.268Z,75.12
2018-01-29T20:01:48.599Z,75.10
2018-01-29T20:04:17.660Z,75.15
2018-01-29T20:06:45.998Z,75.38
2018-01-29T20:09:14.372Z,75.58
2018-01-29T20:11:42.670Z,75.76
2018-01-29T20:14:11.052Z,75.51
2018-01-29T20:16:39.350Z,76.05
2018-01-29T20:19:07.719Z,76.04
2018-01-29T20:21:36.004Z,76.08
2018-01-29T20:24:04.478Z,76.43
2018-01-29T20:26:32.750Z,76.46
2018-01-29T20:29:01.039Z,76.39
2018-01-29T20:31:29.383Z,76.54
2018-01-29T20:33:57.763Z,77.02
2018-01-29T20:36:26.109Z,77.05
2018-01-29T20:38:54.404Z,76.87
2018-01-29T20:41:22.744Z,77.02
2018-01-29T20:43:50.987Z,77.28
2018-01-29T20:46:19.403Z,77.42
2018-01-29T20:48:48.473Z,77.31
2018-01-29T20:51:16.822Z,77.43
2018-01-29T20:53:45.923Z,77.62
2018-01-29T20:56:14.247Z,77.91
2018-01-29T20:58:42.552Z,77.74
2018-01-29T21:01:10.867Z,78.08
2018-01-29T21:03:39.235Z,78.43
2018-01-29T21:06:07.564Z,78.29
2018-01-29T21:08:35.883Z,78.54
2018-01-29T21:11:04.798Z,78.77
2018-01-29T21:13:33.130Z,78.68
2018-01-29T21:16:01.418Z,78.80
2018-01-29T21:18:29.723Z,78.80
2018-01-29T21:20:58.003Z,78.99
2018-01-29T21:23:26.326Z,79.09
2018-01-29T21:25:54.614Z,79.10
2018-01-29T21:28:22.916Z,79.25
2018-01-29T21:30:51.300Z,79.50
2018-01-29T21:33:19.653Z,79.71
2018-01-29T21:35:48.015Z,79.66
2018-01-29T21:38:16.293Z,79.66
2018-01-29T21:40:44.617Z,80.07
2018-01-29T21:43:12.882Z,80.49
2018-01-29T21:45:41.203Z,80.71
2018-01-29T21:48:09.533Z,80.62
2018-01-29T21:50:37.897Z,80.56
2018-01-29T21:53:06.195Z,80.47
2018-01-29T21:55:34.502Z,80.44
2018-01-29T21:58:02.779Z,80.64
2018-01-29T22:00:31.142Z,80.71
2018-01-29T22:02:59.735Z,80.84
2018-01-29T22:05:28.043Z,80.95
2018-01-29T22:07:56.353Z,80.91
2018-01-29T22:10:24.620Z,80.85
2018-01-29T22:12:52.946Z,81.14
2018-01-29T22:15:21.265Z,81.62
2018-01-29T22:17:49.706Z,81.89
2018-01-29T22:20:18.229Z,81.80
2018-01-29T22:22:46.622Z,81.79
2018-01-29T22:25:14.904Z,81.95
2018-01-29T22:27:43.212Z,81.97
2018-01-29T22:30:11.629Z,82.24
2018-01-29T22:32:39.895Z,82.06
2018-01-29T22:35:08.212Z,82.39
2018-01-29T22:37:36.587Z,82.48
2018-01-29T22:40:05.055Z,82.45
2018-01-29T22:42:33.306Z,82.70
2018-01-29T22:45:01.624Z,82.65
2018-01-29T22:47:29.927Z,82.79
2018-01-29T22:49:58.222Z,82.77
2018-01-29T22:52:26.538Z,82.73
2018-01-29T22:54:54.840Z,82.46
2018-01-29T22:57:23.117Z,82.38
2018-01-29T22:59:52.625Z,82.44
2018-01-29T23:02:20.923Z,82.43
2018-01-29T23:04:58.367Z,82.26
2018-01-29T23:07:26.657Z,82.12
2018-01-29T23:10:04.018Z,82.53
2018-01-29T23:12:32.348Z,82.50
2018-01-29T23:15:00.654Z,82.57
2018-01-29T23:17:30.339Z,82.50
2018-01-29T23:19:58.786Z,82.40
2018-01-29T23:22:27.168Z,82.35
2018-01-29T23:24:55.455Z,82.09
2018-01-29T23:27:23.854Z,82.21
2018-01-29T23:29:52.093Z,82.24
2018-01-29T23:32:20.390Z,82.16
2018-01-29T23:34:48.689Z,82.43
2018-01-29T23:37:16.995Z,82.56
2018-01-29T23:39:45.292Z,82.92
2018-01-29T23:42:13.617Z,82.90
2018-01-29T23:44:41.887Z,82.66
2018-01-29T23:47:10.218Z,82.25
2018-01-29T23:49:38.517Z,82.06
2018-01-29T23:52:06.819Z,82.18
2018-01-29T23:54:35.131Z,81.85
2018-01-29T23:57:03.422Z,81.65
2018-01-29T23:59:31.727Z,81.77
